Airfield :
LOGIN :

Register | Disclaimer

   EN    FR    IT 

 










Legend :    VFR   Marginal VFR   IFR   Intensive IFR   Very Intensive IFR
Visi :
Ceiling :
>= 8 km
>= 3000ft
5 to 8 km
1000 to 3000 ft
1500m to 5 km
500 to 1000 ft
800 to 1500m
200 to 500 ft
< 800m
< 200 ft
Symbols :   Thunderstorms  Fog  Heavy snow  Heavy precipitations  Wind > 20 kt
SIGMETs :     Misc.  Thunderstorms  Icing  Turbulence  Mountain Waves  Volcanic Ashes






- Airport Elevation : 117 ft
- IATA code : NWI


EGSH - Norwich

CURRENT METAR :
  • 181120Z 02012KT 6000 RADZ BKN003 OVC006 14/13 Q1014 TEMPO 2000 +TSRA BKN045CB

EXPIRED METARs :
  • 181050Z 02013KT 350V050 6000 RADZ BKN004 OVC007 13/13 Q1014 TEMPO 2000 +TSRA BKN045CB
  • 181020Z 02012KT 7000 -RADZ SCT003 BKN008 13/13 Q1014 RERA TEMPO 3000 +SHRA BKN003 BKN045CB
  • 180950Z 02012KT 3500 RA SCT002 BKN008 13/13 Q1015 TEMPO 03015G25KT 2000 +SHRA BKN001 BKN045CB
  • 180920Z 03012KT 330V060 3500 RA SCT002 BKN006 14/13 Q1015 TEMPO 04015G25KT 2000 +SHRA BKN001 BKN045
  • 180850Z 03013KT 360V060 3500 -DZ BKN004 13/13 Q1015 RERA

TAF TAF EGSH
Valid from the 18 at 12:00 until the 18 at 21:00 UTC


181058Z 1812/1821 01009KT 9999 BKN008
TEMPO 1812/1821 6000 -RA BKN003
PROB40
TEMPO 1812/1821 02015G25KT 4000 +RA RADZ BR
PROB30
TEMPO 1812/1816 1200 +TSRA BKN001 BKN045CB
ATIS : +44 1603 420 640



MET'MAP, your aeronautical weather chart ! - Copyright ORBIFLY December 2007 - Disclaimer

ORBIFLY MET'MAP TEAM :

Programming & Development : Alexandra Zaïnal
Concept & original design : Baudouin d'Aumeries
Assistance for programming : Marc-Olivier Méhu
Technical & hardware support : Manuel Goepfert

Contact : metmap@orbifly.com




SOURCES & CREDITS :

   NOAA